Aérodrome :
LOGIN :

S'inscrire | Disclaimer

   EN    FR    IT 

 










Légende :    VFR   VFR Marginal   IFR   IFR Intensif   IFR Très Intensif
Visi : 
Plafond : 
>= 8 km
>= 3000ft
5 à 8 km
1000 à 3000 ft
1500m à 5 km
500 à 1000 ft
800 à 1500m
200 à 500 ft
< 800m
< 200 ft
Symboles :   Orages  Brouillard  Fortes neiges  Fortes précipitations  Vent > 20 kt
SIGMETs :   Divers  Orages  Givrage  Turbulence  Onde Orograph.  Cendres Volcan.






- Altitude de l'aérodrome : 2595 ft
- Code IATA : SLM


LESA - Salamanca Matacan

DERNIER METAR :
  • 291400Z AUTO 36005KT 260V050 CAVOK 30/06 Q1016

METARs EXPIRÉS :
  • 291330Z AUTO 12004KT 030V200 CAVOK 30/06 Q1016
  • 291300Z AUTO VRB02KT CAVOK 31/07 Q1016
  • 291230Z AUTO VRB01KT CAVOK 29/06 Q1017
  • 291200Z AUTO VRB03KT CAVOK 30/08 Q1017
  • 291130Z AUTO VRB02KT CAVOK 29/08 Q1018

TAF TAF LESA
Valide du 29 à 12h jusqu'au 30 à 12h UTC


291100Z 2912/3012 VRB04KT 9999 FEW040 TX32/2915Z TN13/3006Z
PROB40
TEMPO 2912/2916 35010KT
PROB40
TEMPO 2914/2923 FEW035TCU
PROB30
TEMPO 2915/2922 VRB15G25KT 4000 TS SHRA FEW035CB



MET'MAP, la Météo Aéronautique d'un coup d'oeil ! - Copyright ORBIFLY Décembre 2007 - Disclaimer

ORBIFLY MET'MAP TEAM :

Programmation & Développement : Alexandra Zaïnal
Sur une idée originale de : Baudouin d'Aumeries
Assistance à la programmation : Marc-Olivier Méhu
Soutien technique & logistique : Manuel Goepfert

Contact : metmap@orbifly.com




SOURCES & CREDITS :

   NOAA